Time;durP1;ratioP1;P1;durP2;ratioP2;P2;SDS_P1;SDS_P2;PMS_P1;PMS_P2;Temp;Humidity;BMP_temperature;BMP_pressure;BME280_temperature;BME280_humidity;BME280_pressure;Samples;Min_cycle;Max_cycle;Signal;HPM_P1;HPM_P2
2022/04/26 03:37:05;;;;;;;7.6;5.7;;;;;;;8.5;100.0;101300;;;;
2022/04/26 03:38:00;;;;;;;7.6;5.7;;;;;;;8.6;100.0;101300;;;;
2022/04/26 03:39:00;;;;;;;7.6;5.7;;;;;;;8.6;100.0;101300;;;;
2022/04/26 03:40:00;;;;;;;7.6;5.7;;;;;;;8.6;100.0;101300;;;;
2022/04/26 03:41:00;;;;;;;7.6;5.7;;;;;;;8.6;100.0;101300;;;;
2022/04/26 03:42:00;;;;;;;7.6;5.7;;;;;;;8.5;100.0;101300;;;;
2022/04/26 03:43:02;;;;;;;7.6;5.7;;;;;;;8.5;100.0;101300;;;;
2022/04/26 03:44:00;;;;;;;7.6;5.7;;;;;;;8.4;100.0;101300;;;;
2022/04/26 03:45:00;;;;;;;7.6;5.7;;;;;;;8.4;100.0;101300;;;;
2022/04/26 03:46:00;;;;;;;7.6;5.7;;;;;;;8.5;100.0;101300;;;;
2022/04/26 03:47:00;;;;;;;7.6;5.7;;;;;;;8.5;100.0;101300;;;;
2022/04/26 03:48:00;;;;;;;7.6;5.7;;;;;;;8.5;100.0;101300;;;;
2022/04/26 03:49:00;;;;;;;7.6;5.7;;;;;;;8.5;100.0;101300;;;;
2022/04/26 03:50:00;;;;;;;7.6;5.7;;;;;;;8.4;100.0;101300;;;;
2022/04/26 03:51:00;;;;;;;7.6;5.7;;;;;;;8.4;100.0;101300;;;;
2022/04/26 03:52:00;;;;;;;7.6;5.7;;;;;;;8.5;100.0;101300;;;;
2022/04/26 03:53:00;;;;;;;7.6;5.7;;;;;;;8.5;100.0;101300;;;;
2022/04/26 03:54:05;;;;;;;7.6;5.7;;;;;;;8.4;100.0;101300;;;;
2022/04/26 03:55:02;;;;;;;7.6;5.7;;;;;;;8.4;100.0;101300;;;;
2022/04/26 03:56:00;;;;;;;7.6;5.7;;;;;;;8.6;100.0;101310;;;;
2022/04/26 03:57:00;;;;;;;8.1;6.1;;;;;;;8.6;100.0;101310;;;;
2022/04/26 03:58:00;;;;;;;8.1;6.1;;;;;;;8.4;100.0;101310;;;;
2022/04/26 03:59:00;;;;;;;8.1;6.1;;;;;;;8.4;100.0;101310;;;;
2022/04/26 04:00:00;;;;;;;8.1;6.1;;;;;;;8.5;100.0;101310;;;;
2022/04/26 04:01:00;;;;;;;8.1;6.1;;;;;;;8.5;100.0;101310;;;;
2022/04/26 04:02:00;;;;;;;8.1;6.1;;;;;;;8.4;100.0;101310;;;;
2022/04/26 04:03:00;;;;;;;8.1;6.1;;;;;;;8.4;100.0;101310;;;;
2022/04/26 04:04:00;;;;;;;8.1;6.1;;;;;;;8.4;100.0;101310;;;;
2022/04/26 04:05:00;;;;;;;8.1;6.1;;;;;;;8.4;100.0;101310;;;;
2022/04/26 04:06:00;;;;;;;8.1;6.1;;;;;;;8.5;100.0;101310;;;;
2022/04/26 04:07:00;;;;;;;8.1;6.1;;;;;;;8.5;100.0;101310;;;;
2022/04/26 04:08:00;;;;;;;8.1;6.1;;;;;;;8.5;100.0;101310;;;;
2022/04/26 04:09:00;;;;;;;8.1;6.1;;;;;;;8.5;100.0;101310;;;;
2022/04/26 04:10:00;;;;;;;8.1;6.1;;;;;;;8.6;100.0;101310;;;;
2022/04/26 04:11:00;;;;;;;8.1;6.1;;;;;;;8.6;100.0;101310;;;;
2022/04/26 04:12:00;;;;;;;8.1;6.1;;;;;;;8.4;100.0;101310;;;;
2022/04/26 04:13:00;;;;;;;8.1;6.1;;;;;;;8.4;100.0;101310;;;;
2022/04/26 04:14:00;;;;;;;8.1;6.1;;;;;;;8.4;100.0;101310;;;;
2022/04/26 04:15:00;;;;;;;8.1;6.1;;;;;;;8.4;100.0;101310;;;;
2022/04/26 04:16:00;;;;;;;8.1;6.1;;;;;;;8.4;100.0;101310;;;;
2022/04/26 04:17:00;;;;;;;8.5;7.4;;;;;;;8.4;100.0;101310;;;;
2022/04/26 04:18:00;;;;;;;8.5;7.4;;;;;;;8.4;100.0;101320;;;;
2022/04/26 04:20:00;;;;;;;8.5;7.4;;;;;;;8.5;100.0;101320;;;;
2022/04/26 04:21:00;;;;;;;8.5;7.4;;;;;;;8.5;100.0;101320;;;;
2022/04/26 04:22:00;;;;;;;8.5;7.4;;;;;;;8.5;100.0;101320;;;;
2022/04/26 04:23:00;;;;;;;8.5;7.4;;;;;;;8.5;100.0;101320;;;;
2022/04/26 04:24:00;;;;;;;8.5;7.4;;;;;;;8.4;100.0;101320;;;;
2022/04/26 04:25:00;;;;;;;8.5;7.4;;;;;;;8.4;100.0;101320;;;;
2022/04/26 04:26:00;;;;;;;8.5;7.4;;;;;;;8.5;100.0;101330;;;;
2022/04/26 04:27:00;;;;;;;8.5;7.4;;;;;;;8.5;100.0;101330;;;;
2022/04/26 04:28:00;;;;;;;8.5;7.4;;;;;;;8.4;100.0;101330;;;;
2022/04/26 04:29:00;;;;;;;8.5;7.4;;;;;;;8.4;100.0;101330;;;;
2022/04/26 04:30:02;;;;;;;8.5;7.4;;;;;;;8.4;100.0;101330;;;;
2022/04/26 04:31:00;;;;;;;8.5;7.4;;;;;;;8.4;100.0;101330;;;;
2022/04/26 04:32:00;;;;;;;8.5;7.4;;;;;;;8.4;100.0;101330;;;;
2022/04/26 04:33:00;;;;;;;8.5;7.4;;;;;;;8.4;100.0;101330;;;;
2022/04/26 04:34:01;;;;;;;8.5;7.4;;;;;;;8.4;100.0;101330;;;;
2022/04/26 04:35:00;;;;;;;8.5;7.4;;;;;;;8.4;100.0;101330;;;;
2022/04/26 04:36:00;;;;;;;8.5;7.4;;;;;;;8.5;100.0;101330;;;;
2022/04/26 04:37:00;;;;;;;8.4;7.5;;;;;;;8.5;100.0;101330;;;;
2022/04/26 04:38:00;;;;;;;8.4;7.5;;;;;;;8.3;100.0;101330;;;;
2022/04/26 04:39:00;;;;;;;8.4;7.5;;;;;;;8.3;100.0;101330;;;;
2022/04/26 04:40:00;;;;;;;8.4;7.5;;;;;;;8.4;100.0;101340;;;;
2022/04/26 04:41:00;;;;;;;8.4;7.5;;;;;;;8.4;100.0;101340;;;;
2022/04/26 04:42:00;;;;;;;8.4;7.5;;;;;;;8.3;100.0;101340;;;;
2022/04/26 04:43:00;;;;;;;8.4;7.5;;;;;;;8.3;100.0;101340;;;;
2022/04/26 04:44:00;;;;;;;8.4;7.5;;;;;;;8.4;100.0;101340;;;;
2022/04/26 04:45:02;;;;;;;8.4;7.5;;;;;;;8.4;100.0;101340;;;;
2022/04/26 04:46:00;;;;;;;8.4;7.5;;;;;;;8.3;100.0;101340;;;;
2022/04/26 04:47:00;;;;;;;8.4;7.5;;;;;;;8.3;100.0;101340;;;;
2022/04/26 04:48:00;;;;;;;8.4;7.5;;;;;;;8.4;100.0;101350;;;;
2022/04/26 04:49:00;;;;;;;8.4;7.5;;;;;;;8.4;100.0;101350;;;;
2022/04/26 04:50:00;;;;;;;8.4;7.5;;;;;;;8.3;100.0;101350;;;;
2022/04/26 04:51:00;;;;;;;8.4;7.5;;;;;;;8.3;100.0;101350;;;;
2022/04/26 04:52:00;;;;;;;8.4;7.5;;;;;;;8.4;100.0;101350;;;;
2022/04/26 04:53:00;;;;;;;8.4;7.5;;;;;;;8.4;100.0;101350;;;;
2022/04/26 04:54:01;;;;;;;8.4;7.5;;;;;;;8.4;100.0;101360;;;;
2022/04/26 04:55:00;;;;;;;8.4;7.5;;;;;;;8.4;100.0;101360;;;;
2022/04/26 04:56:00;;;;;;;8.4;7.5;;;;;;;8.4;100.0;101360;;;;
2022/04/26 04:57:02;;;;;;;7.5;6.7;;;;;;;8.4;100.0;101360;;;;
2022/04/26 04:58:00;;;;;;;7.5;6.7;;;;;;;8.5;100.0;101360;;;;
2022/04/26 04:59:00;;;;;;;7.5;6.7;;;;;;;8.5;100.0;101360;;;;
2022/04/26 05:00:01;;;;;;;7.5;6.7;;;;;;;8.4;100.0;101360;;;;
2022/04/26 05:01:00;;;;;;;7.5;6.7;;;;;;;8.4;100.0;101360;;;;
2022/04/26 05:02:00;;;;;;;7.5;6.7;;;;;;;8.3;100.0;101370;;;;
2022/04/26 05:03:00;;;;;;;7.5;6.7;;;;;;;8.3;100.0;101370;;;;
2022/04/26 05:04:00;;;;;;;7.5;6.7;;;;;;;8.3;100.0;101370;;;;
2022/04/26 05:05:00;;;;;;;7.5;6.7;;;;;;;8.3;100.0;101370;;;;
2022/04/26 05:06:00;;;;;;;7.5;6.7;;;;;;;8.2;100.0;101370;;;;
2022/04/26 05:07:00;;;;;;;7.5;6.7;;;;;;;8.2;100.0;101370;;;;
2022/04/26 05:08:00;;;;;;;7.5;6.7;;;;;;;8.2;100.0;101380;;;;
2022/04/26 05:09:00;;;;;;;7.5;6.7;;;;;;;8.2;100.0;101380;;;;
2022/04/26 05:10:00;;;;;;;7.5;6.7;;;;;;;8.3;100.0;101380;;;;
2022/04/26 05:11:00;;;;;;;7.5;6.7;;;;;;;8.3;100.0;101380;;;;
2022/04/26 05:12:00;;;;;;;7.5;6.7;;;;;;;8.4;100.0;101380;;;;
2022/04/26 05:13:00;;;;;;;7.5;6.7;;;;;;;8.4;100.0;101380;;;;
2022/04/26 05:14:00;;;;;;;7.5;6.7;;;;;;;8.4;100.0;101380;;;;
2022/04/26 05:15:00;;;;;;;7.5;6.7;;;;;;;8.4;100.0;101380;;;;
2022/04/26 05:16:00;;;;;;;7.5;6.7;;;;;;;8.5;100.0;101380;;;;
2022/04/26 05:17:00;;;;;;;8.3;7.4;;;;;;;8.5;100.0;101380;;;;
2022/04/26 05:18:00;;;;;;;8.3;7.4;;;;;;;8.4;100.0;101390;;;;
2022/04/26 05:19:00;;;;;;;8.3;7.4;;;;;;;8.4;100.0;101390;;;;
2022/04/26 05:20:00;;;;;;;8.3;7.4;;;;;;;8.4;100.0;101390;;;;
2022/04/26 05:21:00;;;;;;;8.3;7.4;;;;;;;8.4;100.0;101390;;;;
2022/04/26 05:22:00;;;;;;;8.3;7.4;;;;;;;8.4;100.0;101390;;;;
2022/04/26 05:25:00;;;;;;;8.3;7.4;;;;;;;8.5;100.0;101390;;;;
2022/04/26 05:26:00;;;;;;;8.3;7.4;;;;;;;8.6;100.0;101390;;;;
2022/04/26 05:27:00;;;;;;;8.3;7.4;;;;;;;8.6;100.0;101390;;;;
2022/04/26 05:28:01;;;;;;;8.3;7.4;;;;;;;8.6;100.0;101390;;;;
2022/04/26 05:29:01;;;;;;;8.3;7.4;;;;;;;8.6;100.0;101390;;;;
2022/04/26 05:30:00;;;;;;;8.3;7.4;;;;;;;8.6;100.0;101400;;;;
2022/04/26 05:31:00;;;;;;;8.3;7.4;;;;;;;8.6;100.0;101400;;;;
2022/04/26 05:34:05;;;;;;;8.3;7.4;;;;;;;8.5;100.0;101400;;;;
2022/04/26 05:35:01;;;;;;;8.3;7.4;;;;;;;8.5;100.0;101400;;;;
2022/04/26 05:36:00;;;;;;;8.3;7.4;;;;;;;8.6;100.0;101400;;;;
2022/04/26 05:37:00;;;;;;;8.6;7.7;;;;;;;8.6;100.0;101400;;;;
2022/04/26 05:38:00;;;;;;;8.6;7.7;;;;;;;8.6;100.0;101400;;;;
2022/04/26 05:39:01;;;;;;;8.6;7.7;;;;;;;8.6;100.0;101400;;;;
2022/04/26 05:40:02;;;;;;;8.6;7.7;;;;;;;8.6;100.0;101400;;;;
2022/04/26 05:41:00;;;;;;;8.6;7.7;;;;;;;8.6;100.0;101400;;;;
2022/04/26 05:42:00;;;;;;;8.6;7.7;;;;;;;8.5;100.0;101410;;;;
2022/04/26 05:43:00;;;;;;;8.6;7.7;;;;;;;8.5;100.0;101410;;;;
2022/04/26 05:44:00;;;;;;;8.6;7.7;;;;;;;8.6;100.0;101410;;;;
2022/04/26 05:45:00;;;;;;;8.6;7.7;;;;;;;8.6;100.0;101410;;;;
2022/04/26 05:46:00;;;;;;;8.6;7.7;;;;;;;8.6;100.0;101410;;;;
2022/04/26 05:47:02;;;;;;;8.6;7.7;;;;;;;8.6;100.0;101410;;;;
2022/04/26 05:48:00;;;;;;;8.6;7.7;;;;;;;8.7;100.0;101410;;;;
2022/04/26 05:49:00;;;;;;;8.6;7.7;;;;;;;8.7;100.0;101410;;;;
2022/04/26 05:50:00;;;;;;;8.6;7.7;;;;;;;8.7;100.0;101410;;;;
2022/04/26 05:51:00;;;;;;;8.6;7.7;;;;;;;8.7;100.0;101410;;;;
2022/04/26 05:52:00;;;;;;;8.6;7.7;;;;;;;8.6;100.0;101410;;;;
2022/04/26 05:53:00;;;;;;;8.6;7.7;;;;;;;8.6;100.0;101410;;;;
2022/04/26 05:54:00;;;;;;;8.6;7.7;;;;;;;8.6;100.0;101410;;;;
2022/04/26 05:55:04;;;;;;;8.6;7.7;;;;;;;8.6;100.0;101410;;;;
2022/04/26 05:56:00;;;;;;;8.6;7.7;;;;;;;8.7;100.0;101410;;;;
2022/04/26 05:57:00;;;;;;;9.6;7.5;;;;;;;8.7;100.0;101410;;;;
2022/04/26 05:58:02;;;;;;;9.6;7.5;;;;;;;8.8;100.0;101410;;;;
2022/04/26 05:59:00;;;;;;;9.6;7.5;;;;;;;8.8;100.0;101410;;;;
2022/04/26 06:00:03;;;;;;;9.6;7.5;;;;;;;8.8;100.0;101420;;;;
2022/04/26 06:01:00;;;;;;;9.6;7.5;;;;;;;8.8;100.0;101420;;;;
2022/04/26 06:02:00;;;;;;;9.6;7.5;;;;;;;8.8;100.0;101420;;;;
2022/04/26 06:03:01;;;;;;;9.6;7.5;;;;;;;8.8;100.0;101420;;;;
2022/04/26 06:04:00;;;;;;;9.6;7.5;;;;;;;8.7;100.0;101420;;;;
2022/04/26 06:05:00;;;;;;;9.6;7.5;;;;;;;8.7;100.0;101420;;;;
2022/04/26 06:06:00;;;;;;;9.6;7.5;;;;;;;8.6;100.0;101420;;;;
2022/04/26 06:07:00;;;;;;;9.6;7.5;;;;;;;8.6;100.0;101420;;;;
2022/04/26 06:08:00;;;;;;;9.6;7.5;;;;;;;8.8;100.0;101420;;;;
2022/04/26 06:09:00;;;;;;;9.6;7.5;;;;;;;8.8;100.0;101420;;;;
2022/04/26 06:10:01;;;;;;;9.6;7.5;;;;;;;8.7;100.0;101430;;;;
2022/04/26 06:11:00;;;;;;;9.6;7.5;;;;;;;8.7;100.0;101430;;;;
2022/04/26 06:12:00;;;;;;;9.6;7.5;;;;;;;8.8;100.0;101430;;;;
2022/04/26 06:13:00;;;;;;;9.6;7.5;;;;;;;8.8;100.0;101430;;;;
2022/04/26 06:14:02;;;;;;;9.6;7.5;;;;;;;8.8;100.0;101430;;;;
2022/04/26 06:15:00;;;;;;;9.6;7.5;;;;;;;8.8;100.0;101430;;;;
2022/04/26 06:16:00;;;;;;;9.6;7.5;;;;;;;8.8;100.0;101430;;;;
2022/04/26 06:17:00;;;;;;;12.6;10.2;;;;;;;8.8;100.0;101430;;;;
2022/04/26 06:18:00;;;;;;;12.6;10.2;;;;;;;8.8;100.0;101440;;;;
2022/04/26 06:19:00;;;;;;;12.6;10.2;;;;;;;8.8;100.0;101440;;;;
2022/04/26 06:20:00;;;;;;;12.6;10.2;;;;;;;8.8;100.0;101440;;;;
2022/04/26 06:21:01;;;;;;;12.6;10.2;;;;;;;8.8;100.0;101440;;;;
2022/04/26 06:22:00;;;;;;;12.6;10.2;;;;;;;8.9;100.0;101440;;;;
2022/04/26 06:23:01;;;;;;;12.6;10.2;;;;;;;8.9;100.0;101440;;;;
2022/04/26 06:24:00;;;;;;;12.6;10.2;;;;;;;8.9;100.0;101440;;;;
2022/04/26 06:25:00;;;;;;;12.6;10.2;;;;;;;8.9;100.0;101440;;;;
2022/04/26 06:26:01;;;;;;;12.6;10.2;;;;;;;8.9;100.0;101440;;;;
2022/04/26 06:27:00;;;;;;;12.6;10.2;;;;;;;8.9;100.0;101440;;;;
2022/04/26 06:28:00;;;;;;;12.6;10.2;;;;;;;9.1;100.0;101440;;;;
2022/04/26 06:29:00;;;;;;;12.6;10.2;;;;;;;9.1;100.0;101440;;;;
2022/04/26 06:30:00;;;;;;;12.6;10.2;;;;;;;9.1;100.0;101440;;;;
2022/04/26 06:31:00;;;;;;;12.6;10.2;;;;;;;9.1;100.0;101440;;;;
2022/04/26 06:32:01;;;;;;;12.6;10.2;;;;;;;9.2;100.0;101440;;;;
2022/04/26 06:33:00;;;;;;;12.6;10.2;;;;;;;9.2;100.0;101440;;;;
2022/04/26 06:34:00;;;;;;;12.6;10.2;;;;;;;9.1;100.0;101450;;;;
2022/04/26 06:35:00;;;;;;;12.6;10.2;;;;;;;9.1;100.0;101450;;;;
2022/04/26 06:36:00;;;;;;;12.6;10.2;;;;;;;9.1;100.0;101450;;;;
2022/04/26 06:37:00;;;;;;;11.3;10.1;;;;;;;9.1;100.0;101450;;;;
2022/04/26 06:38:00;;;;;;;11.3;10.1;;;;;;;9.2;100.0;101450;;;;
2022/04/26 06:39:00;;;;;;;11.3;10.1;;;;;;;9.2;100.0;101450;;;;
2022/04/26 06:40:00;;;;;;;11.3;10.1;;;;;;;9.4;100.0;101450;;;;
2022/04/26 06:41:00;;;;;;;11.3;10.1;;;;;;;9.4;100.0;101450;;;;
2022/04/26 06:42:00;;;;;;;11.3;10.1;;;;;;;9.4;100.0;101460;;;;
2022/04/26 06:43:00;;;;;;;11.3;10.1;;;;;;;9.4;100.0;101460;;;;
2022/04/26 06:44:00;;;;;;;11.3;10.1;;;;;;;9.4;100.0;101460;;;;
2022/04/26 06:45:00;;;;;;;11.3;10.1;;;;;;;9.4;100.0;101460;;;;
2022/04/26 06:46:00;;;;;;;11.3;10.1;;;;;;;9.5;100.0;101460;;;;
2022/04/26 06:47:00;;;;;;;11.3;10.1;;;;;;;9.5;100.0;101460;;;;
2022/04/26 06:48:00;;;;;;;11.3;10.1;;;;;;;9.6;100.0;101460;;;;
2022/04/26 06:49:00;;;;;;;11.3;10.1;;;;;;;9.6;100.0;101460;;;;
2022/04/26 06:50:00;;;;;;;11.3;10.1;;;;;;;9.7;100.0;101460;;;;
2022/04/26 06:51:00;;;;;;;11.3;10.1;;;;;;;9.7;100.0;101460;;;;
2022/04/26 06:52:00;;;;;;;11.3;10.1;;;;;;;9.7;100.0;101460;;;;
2022/04/26 06:53:00;;;;;;;11.3;10.1;;;;;;;9.7;100.0;101460;;;;
2022/04/26 06:54:00;;;;;;;11.3;10.1;;;;;;;9.8;100.0;101470;;;;
2022/04/26 06:55:00;;;;;;;11.3;10.1;;;;;;;9.8;100.0;101470;;;;
2022/04/26 06:56:00;;;;;;;11.3;10.1;;;;;;;9.8;100.0;101470;;;;
2022/04/26 06:57:00;;;;;;;11.0;9.9;;;;;;;9.8;100.0;101470;;;;
2022/04/26 06:58:00;;;;;;;11.0;9.9;;;;;;;9.9;100.0;101470;;;;
2022/04/26 06:59:00;;;;;;;11.0;9.9;;;;;;;9.9;100.0;101470;;;;
2022/04/26 07:00:00;;;;;;;11.0;9.9;;;;;;;9.8;100.0;101470;;;;
2022/04/26 07:01:10;;;;;;;11.0;9.9;;;;;;;9.8;100.0;101470;;;;
2022/04/26 07:02:00;;;;;;;11.0;9.9;;;;;;;9.6;100.0;101470;;;;
2022/04/26 07:03:00;;;;;;;11.0;9.9;;;;;;;9.6;100.0;101470;;;;
2022/04/26 07:04:00;;;;;;;11.0;9.9;;;;;;;9.8;100.0;101470;;;;
2022/04/26 07:05:00;;;;;;;11.0;9.9;;;;;;;9.8;100.0;101470;;;;
2022/04/26 07:06:00;;;;;;;11.0;9.9;;;;;;;9.8;100.0;101480;;;;
2022/04/26 07:07:00;;;;;;;11.0;9.9;;;;;;;9.8;100.0;101480;;;;
2022/04/26 07:08:00;;;;;;;11.0;9.9;;;;;;;9.7;100.0;101470;;;;
2022/04/26 07:09:01;;;;;;;11.0;9.9;;;;;;;9.7;100.0;101470;;;;
2022/04/26 07:10:00;;;;;;;11.0;9.9;;;;;;;9.8;100.0;101470;;;;
2022/04/26 07:11:00;;;;;;;11.0;9.9;;;;;;;9.8;100.0;101470;;;;
2022/04/26 07:12:00;;;;;;;11.0;9.9;;;;;;;9.9;100.0;101470;;;;
2022/04/26 07:13:00;;;;;;;11.0;9.9;;;;;;;9.9;100.0;101470;;;;
2022/04/26 07:14:00;;;;;;;11.0;9.9;;;;;;;10.0;100.0;101470;;;;
2022/04/26 07:15:00;;;;;;;11.0;9.9;;;;;;;10.0;100.0;101470;;;;
2022/04/26 07:16:00;;;;;;;11.0;9.9;;;;;;;9.9;100.0;101470;;;;
2022/04/26 07:17:01;;;;;;;13.3;9.6;;;;;;;9.9;100.0;101470;;;;
2022/04/26 07:18:00;;;;;;;13.3;9.6;;;;;;;10.1;100.0;101470;;;;
2022/04/26 07:19:00;;;;;;;13.3;9.6;;;;;;;10.1;100.0;101470;;;;
2022/04/26 07:20:03;;;;;;;13.3;9.6;;;;;;;10.1;100.0;101480;;;;
2022/04/26 07:21:00;;;;;;;13.3;9.6;;;;;;;10.1;100.0;101480;;;;
2022/04/26 07:22:07;;;;;;;13.3;9.6;;;;;;;10.1;100.0;101470;;;;
2022/04/26 07:23:00;;;;;;;13.3;9.6;;;;;;;10.1;100.0;101470;;;;
2022/04/26 07:24:00;;;;;;;13.3;9.6;;;;;;;10.2;100.0;101480;;;;
2022/04/26 07:25:00;;;;;;;13.3;9.6;;;;;;;10.2;100.0;101480;;;;
2022/04/26 07:26:00;;;;;;;13.3;9.6;;;;;;;10.2;100.0;101480;;;;
2022/04/26 07:28:00;;;;;;;13.3;9.6;;;;;;;10.3;100.0;101480;;;;
2022/04/26 07:29:00;;;;;;;13.3;9.6;;;;;;;10.3;100.0;101480;;;;
2022/04/26 07:30:00;;;;;;;13.3;9.6;;;;;;;10.3;100.0;101490;;;;
2022/04/26 07:31:00;;;;;;;13.3;9.6;;;;;;;10.3;100.0;101490;;;;
2022/04/26 07:32:00;;;;;;;13.3;9.6;;;;;;;10.2;100.0;101480;;;;
2022/04/26 07:35:00;;;;;;;13.3;9.6;;;;;;;10.2;100.0;101490;;;;
2022/04/26 07:36:00;;;;;;;10.9;8.9;;;;;;;10.3;100.0;101490;;;;
2022/04/26 07:37:02;;;;;;;10.9;8.9;;;;;;;10.3;100.0;101490;;;;
2022/04/26 07:38:03;;;;;;;10.9;8.9;;;;;;;10.4;100.0;101490;;;;
2022/04/26 07:39:00;;;;;;;10.9;8.9;;;;;;;10.4;100.0;101490;;;;
2022/04/26 07:40:00;;;;;;;10.9;8.9;;;;;;;10.6;100.0;101490;;;;
2022/04/26 07:41:00;;;;;;;10.9;8.9;;;;;;;10.6;100.0;101490;;;;
2022/04/26 07:42:01;;;;;;;10.9;8.9;;;;;;;10.7;100.0;101490;;;;
2022/04/26 07:43:00;;;;;;;10.9;8.9;;;;;;;10.7;100.0;101490;;;;
2022/04/26 07:44:00;;;;;;;10.9;8.9;;;;;;;10.6;100.0;101490;;;;
2022/04/26 07:45:00;;;;;;;10.9;8.9;;;;;;;10.6;100.0;101490;;;;
2022/04/26 07:46:00;;;;;;;10.9;8.9;;;;;;;10.6;100.0;101500;;;;
2022/04/26 07:47:00;;;;;;;10.9;8.9;;;;;;;10.6;100.0;101500;;;;
2022/04/26 07:48:00;;;;;;;10.9;8.9;;;;;;;10.6;100.0;101490;;;;
2022/04/26 07:49:00;;;;;;;10.9;8.9;;;;;;;10.6;100.0;101490;;;;
2022/04/26 07:50:01;;;;;;;10.9;8.9;;;;;;;10.7;100.0;101500;;;;
2022/04/26 07:51:00;;;;;;;10.9;8.9;;;;;;;10.7;100.0;101500;;;;
2022/04/26 07:52:00;;;;;;;10.9;8.9;;;;;;;10.7;100.0;101500;;;;
2022/04/26 07:53:00;;;;;;;10.9;8.9;;;;;;;10.7;100.0;101500;;;;
2022/04/26 07:54:00;;;;;;;10.9;8.9;;;;;;;10.8;100.0;101510;;;;
2022/04/26 07:55:00;;;;;;;10.9;8.9;;;;;;;10.8;100.0;101510;;;;
2022/04/26 07:56:00;;;;;;;9.0;7.9;;;;;;;10.9;100.0;101510;;;;
2022/04/26 07:57:00;;;;;;;9.0;7.9;;;;;;;10.9;100.0;101510;;;;
2022/04/26 07:58:00;;;;;;;9.0;7.9;;;;;;;10.9;100.0;101510;;;;
2022/04/26 07:59:01;;;;;;;9.0;7.9;;;;;;;10.9;100.0;101510;;;;
2022/04/26 08:00:00;;;;;;;9.0;7.9;;;;;;;10.8;100.0;101510;;;;
2022/04/26 08:01:01;;;;;;;9.0;7.9;;;;;;;10.8;100.0;101510;;;;
2022/04/26 08:02:00;;;;;;;9.0;7.9;;;;;;;10.9;100.0;101520;;;;
2022/04/26 08:03:02;;;;;;;9.0;7.9;;;;;;;10.9;100.0;101520;;;;
2022/04/26 08:04:00;;;;;;;9.0;7.9;;;;;;;10.9;100.0;101510;;;;
2022/04/26 08:05:01;;;;;;;9.0;7.9;;;;;;;10.9;100.0;101510;;;;
2022/04/26 08:06:00;;;;;;;9.0;7.9;;;;;;;10.8;100.0;101510;;;;
2022/04/26 08:07:00;;;;;;;9.0;7.9;;;;;;;10.8;100.0;101510;;;;
2022/04/26 08:08:00;;;;;;;9.0;7.9;;;;;;;10.9;100.0;101510;;;;
2022/04/26 08:09:00;;;;;;;9.0;7.9;;;;;;;10.9;100.0;101510;;;;
2022/04/26 08:10:00;;;;;;;9.0;7.9;;;;;;;10.9;100.0;101520;;;;
2022/04/26 08:11:01;;;;;;;9.0;7.9;;;;;;;10.9;100.0;101520;;;;
2022/04/26 08:12:00;;;;;;;9.0;7.9;;;;;;;10.9;100.0;101520;;;;
2022/04/26 08:13:00;;;;;;;9.0;7.9;;;;;;;10.9;100.0;101520;;;;
2022/04/26 08:14:00;;;;;;;9.0;7.9;;;;;;;11.0;100.0;101520;;;;
2022/04/26 08:15:00;;;;;;;9.0;7.9;;;;;;;11.0;100.0;101520;;;;
2022/04/26 08:16:00;;;;;;;9.9;7.4;;;;;;;11.1;100.0;101520;;;;
2022/04/26 08:17:00;;;;;;;9.9;7.4;;;;;;;11.1;100.0;101520;;;;
2022/04/26 08:18:00;;;;;;;9.9;7.4;;;;;;;11.4;100.0;101530;;;;
2022/04/26 08:19:00;;;;;;;9.9;7.4;;;;;;;11.4;100.0;101530;;;;
2022/04/26 08:20:00;;;;;;;9.9;7.4;;;;;;;11.4;100.0;101520;;;;
2022/04/26 08:21:00;;;;;;;9.9;7.4;;;;;;;11.4;100.0;101520;;;;
2022/04/26 08:22:00;;;;;;;9.9;7.4;;;;;;;11.4;100.0;101530;;;;
2022/04/26 08:23:00;;;;;;;9.9;7.4;;;;;;;11.4;100.0;101530;;;;
2022/04/26 08:28:01;;;;;;;9.9;7.4;;;;;;;11.4;100.0;101530;;;;
2022/04/26 08:29:00;;;;;;;9.9;7.4;;;;;;;11.4;100.0;101530;;;;
2022/04/26 08:30:03;;;;;;;9.9;7.4;;;;;;;11.3;100.0;101540;;;;
2022/04/26 08:31:00;;;;;;;9.9;7.4;;;;;;;11.3;100.0;101540;;;;
2022/04/26 08:32:00;;;;;;;9.9;7.4;;;;;;;11.2;100.0;101540;;;;
2022/04/26 08:33:00;;;;;;;9.9;7.4;;;;;;;11.2;100.0;101540;;;;
2022/04/26 08:34:00;;;;;;;9.9;7.4;;;;;;;11.3;100.0;101530;;;;
2022/04/26 08:35:00;;;;;;;9.9;7.4;;;;;;;11.3;100.0;101530;;;;
2022/04/26 08:36:06;;;;;;;9.3;7.3;;;;;;;11.4;100.0;101540;;;;
2022/04/26 08:37:00;;;;;;;9.3;7.3;;;;;;;11.4;100.0;101540;;;;
2022/04/26 08:38:00;;;;;;;9.3;7.3;;;;;;;11.6;100.0;101540;;;;
2022/04/26 08:39:00;;;;;;;9.3;7.3;;;;;;;11.6;100.0;101540;;;;
2022/04/26 08:40:00;;;;;;;9.3;7.3;;;;;;;11.7;100.0;101550;;;;
2022/04/26 08:41:00;;;;;;;9.3;7.3;;;;;;;11.7;100.0;101550;;;;
2022/04/26 08:42:00;;;;;;;9.3;7.3;;;;;;;11.8;100.0;101540;;;;
2022/04/26 08:43:00;;;;;;;9.3;7.3;;;;;;;11.8;100.0;101540;;;;
2022/04/26 08:44:00;;;;;;;9.3;7.3;;;;;;;12.0;100.0;101540;;;;
2022/04/26 08:45:00;;;;;;;9.3;7.3;;;;;;;12.0;100.0;101540;;;;
2022/04/26 08:46:02;;;;;;;9.3;7.3;;;;;;;12.0;100.0;101540;;;;
2022/04/26 08:51:00;;;;;;;9.3;7.3;;;;;;;12.1;100.0;101540;;;;
2022/04/26 08:52:01;;;;;;;9.3;7.3;;;;;;;12.3;100.0;101540;;;;
2022/04/26 08:53:01;;;;;;;9.3;7.3;;;;;;;12.3;100.0;101540;;;;
2022/04/26 08:54:00;;;;;;;9.3;7.3;;;;;;;12.3;100.0;101550;;;;
2022/04/26 08:55:00;;;;;;;9.3;7.3;;;;;;;12.3;100.0;101550;;;;
2022/04/26 08:56:03;;;;;;;8.6;7.3;;;;;;;12.4;100.0;101540;;;;
2022/04/26 08:57:00;;;;;;;8.6;7.3;;;;;;;12.4;100.0;101540;;;;
2022/04/26 08:58:00;;;;;;;8.6;7.3;;;;;;;12.4;100.0;101540;;;;
2022/04/26 08:59:00;;;;;;;8.6;7.3;;;;;;;12.4;100.0;101540;;;;
2022/04/26 09:00:01;;;;;;;8.6;7.3;;;;;;;12.4;100.0;101550;;;;
2022/04/26 09:01:10;;;;;;;8.6;7.3;;;;;;;12.4;100.0;101550;;;;
2022/04/26 09:02:10;;;;;;;8.6;7.3;;;;;;;12.6;100.0;101550;;;;
2022/04/26 09:03:02;;;;;;;8.6;7.3;;;;;;;12.6;100.0;101550;;;;
2022/04/26 09:04:02;;;;;;;8.6;7.3;;;;;;;12.5;100.0;101540;;;;
2022/04/26 09:05:00;;;;;;;8.6;7.3;;;;;;;12.5;100.0;101540;;;;
2022/04/26 09:06:04;;;;;;;8.6;7.3;;;;;;;12.4;100.0;101550;;;;
2022/04/26 09:07:00;;;;;;;8.6;7.3;;;;;;;12.4;100.0;101550;;;;
2022/04/26 09:08:00;;;;;;;8.6;7.3;;;;;;;12.6;100.0;101550;;;;
2022/04/26 09:09:08;;;;;;;8.6;7.3;;;;;;;12.6;100.0;101550;;;;
2022/04/26 09:10:08;;;;;;;8.6;7.3;;;;;;;12.8;100.0;101550;;;;
2022/04/26 09:11:00;;;;;;;8.6;7.3;;;;;;;12.8;100.0;101550;;;;
2022/04/26 09:12:01;;;;;;;8.6;7.3;;;;;;;12.6;100.0;101550;;;;
2022/04/26 09:13:07;;;;;;;8.6;7.3;;;;;;;12.6;100.0;101550;;;;
2022/04/26 09:14:01;;;;;;;8.6;7.3;;;;;;;12.7;100.0;101550;;;;
2022/04/26 09:15:10;;;;;;;8.6;7.3;;;;;;;12.7;100.0;101550;;;;
2022/04/26 09:16:00;;;;;;;8.1;6.0;;;;;;;12.9;100.0;101560;;;;
2022/04/26 09:17:04;;;;;;;8.1;6.0;;;;;;;12.9;100.0;101560;;;;
2022/04/26 09:18:12;;;;;;;8.1;6.0;;;;;;;13.1;100.0;101560;;;;
2022/04/26 09:19:01;;;;;;;8.1;6.0;;;;;;;13.1;100.0;101560;;;;
2022/04/26 09:20:00;;;;;;;8.1;6.0;;;;;;;13.0;100.0;101560;;;;
2022/04/26 09:21:08;;;;;;;8.1;6.0;;;;;;;13.0;100.0;101560;;;;
2022/04/26 09:22:00;;;;;;;8.1;6.0;;;;;;;13.2;100.0;101560;;;;
2022/04/26 09:23:00;;;;;;;8.1;6.0;;;;;;;13.2;100.0;101560;;;;
2022/04/26 09:24:04;;;;;;;8.1;6.0;;;;;;;13.2;100.0;101560;;;;
2022/04/26 09:25:03;;;;;;;8.1;6.0;;;;;;;13.2;100.0;101560;;;;
2022/04/26 09:26:09;;;;;;;8.1;6.0;;;;;;;13.3;100.0;101570;;;;
2022/04/26 09:27:10;;;;;;;8.1;6.0;;;;;;;13.3;100.0;101570;;;;
2022/04/26 09:28:00;;;;;;;8.1;6.0;;;;;;;13.4;100.0;101560;;;;
2022/04/26 09:29:00;;;;;;;8.1;6.0;;;;;;;13.4;100.0;101560;;;;
2022/04/26 09:30:06;;;;;;;8.1;6.0;;;;;;;13.5;100.0;101570;;;;
2022/04/26 09:31:00;;;;;;;8.1;6.0;;;;;;;13.5;100.0;101570;;;;
2022/04/26 09:32:02;;;;;;;8.1;6.0;;;;;;;13.6;100.0;101560;;;;
2022/04/26 09:33:00;;;;;;;8.1;6.0;;;;;;;13.6;100.0;101560;;;;
2022/04/26 09:34:04;;;;;;;8.1;6.0;;;;;;;13.6;100.0;101560;;;;
2022/04/26 09:35:01;;;;;;;8.1;6.0;;;;;;;13.6;100.0;101560;;;;
2022/04/26 09:36:01;;;;;;;7.2;5.1;;;;;;;13.3;100.0;101560;;;;
2022/04/26 09:37:04;;;;;;;7.2;5.1;;;;;;;13.3;100.0;101560;;;;
2022/04/26 09:38:00;;;;;;;7.2;5.1;;;;;;;13.4;100.0;101570;;;;
2022/04/26 09:39:00;;;;;;;7.2;5.1;;;;;;;13.4;100.0;101570;;;;
2022/04/26 09:40:06;;;;;;;7.2;5.1;;;;;;;13.5;100.0;101560;;;;
2022/04/26 09:41:01;;;;;;;7.2;5.1;;;;;;;13.5;100.0;101560;;;;
2022/04/26 09:42:00;;;;;;;7.2;5.1;;;;;;;13.4;100.0;101570;;;;
2022/04/26 09:43:00;;;;;;;7.2;5.1;;;;;;;13.4;100.0;101570;;;;
2022/04/26 09:44:01;;;;;;;7.2;5.1;;;;;;;13.5;100.0;101570;;;;
2022/04/26 09:45:04;;;;;;;7.2;5.1;;;;;;;13.5;100.0;101570;;;;
2022/04/26 09:46:00;;;;;;;7.2;5.1;;;;;;;13.5;100.0;101580;;;;
2022/04/26 09:47:00;;;;;;;7.2;5.1;;;;;;;13.5;100.0;101580;;;;
2022/04/26 09:48:00;;;;;;;7.2;5.1;;;;;;;13.4;100.0;101580;;;;
2022/04/26 09:49:04;;;;;;;7.2;5.1;;;;;;;13.4;100.0;101580;;;;
2022/04/26 09:50:03;;;;;;;7.2;5.1;;;;;;;13.3;100.0;101590;;;;
2022/04/26 09:51:00;;;;;;;7.2;5.1;;;;;;;13.3;100.0;101590;;;;
2022/04/26 09:52:01;;;;;;;7.2;5.1;;;;;;;13.3;100.0;101580;;;;
2022/04/26 09:53:00;;;;;;;7.2;5.1;;;;;;;13.3;100.0;101580;;;;
2022/04/26 09:54:00;;;;;;;7.2;5.1;;;;;;;13.3;100.0;101590;;;;
2022/04/26 09:55:00;;;;;;;7.2;5.1;;;;;;;13.3;100.0;101590;;;;
2022/04/26 09:56:01;;;;;;;5.8;4.7;;;;;;;13.0;100.0;101580;;;;
2022/04/26 09:57:12;;;;;;;5.8;4.7;;;;;;;13.0;100.0;101580;;;;
2022/04/26 09:58:00;;;;;;;5.8;4.7;;;;;;;13.1;100.0;101590;;;;
2022/04/26 09:59:01;;;;;;;5.8;4.7;;;;;;;13.1;100.0;101590;;;;
2022/04/26 10:00:01;;;;;;;5.8;4.7;;;;;;;13.1;100.0;101590;;;;
2022/04/26 10:01:01;;;;;;;5.8;4.7;;;;;;;13.1;100.0;101590;;;;
2022/04/26 10:02:01;;;;;;;5.8;4.7;;;;;;;13.3;100.0;101590;;;;
2022/04/26 10:03:06;;;;;;;5.8;4.7;;;;;;;13.3;100.0;101590;;;;
2022/04/26 10:04:04;;;;;;;5.8;4.7;;;;;;;13.2;100.0;101590;;;;
2022/04/26 10:05:03;;;;;;;5.8;4.7;;;;;;;13.2;100.0;101590;;;;
2022/04/26 10:06:01;;;;;;;5.8;4.7;;;;;;;13.3;100.0;101590;;;;
2022/04/26 10:07:02;;;;;;;5.8;4.7;;;;;;;13.3;100.0;101590;;;;
2022/04/26 10:08:00;;;;;;;5.8;4.7;;;;;;;13.5;100.0;101590;;;;
2022/04/26 10:09:01;;;;;;;5.8;4.7;;;;;;;13.5;100.0;101590;;;;
2022/04/26 10:10:01;;;;;;;5.8;4.7;;;;;;;13.6;100.0;101590;;;;
2022/04/26 10:11:00;;;;;;;5.8;4.7;;;;;;;13.6;100.0;101590;;;;
2022/04/26 10:12:01;;;;;;;5.8;4.7;;;;;;;13.6;100.0;101600;;;;
2022/04/26 10:14:01;;;;;;;5.8;4.7;;;;;;;13.6;100.0;101600;;;;
2022/04/26 10:15:01;;;;;;;5.8;4.7;;;;;;;13.6;100.0;101600;;;;
2022/04/26 10:16:01;;;;;;;6.5;4.6;;;;;;;13.6;100.0;101600;;;;
2022/04/26 10:17:00;;;;;;;6.5;4.6;;;;;;;13.6;100.0;101600;;;;